Time;durP1;ratioP1;P1;durP2;ratioP2;P2;SDS_P1;SDS_P2;PMS_P1;PMS_P2;Temp;Humidity;BMP_temperature;BMP_pressure;BME280_temperature;BME280_humidity;BME280_pressure;Samples;Min_cycle;Max_cycle;Signal;HPM_P1;HPM_P2
2023/02/11 00:00:53;;;;;;;59.90;29.20;;;;;;;1.18;83.39;101378.16;103047;1255;138541;-67
2023/02/11 00:03:25;;;;;;;59.20;27.60;;;;;;;1.18;83.44;101372.85;103060;1259;97774;-67
2023/02/11 00:06:00;;;;;;;56.00;26.60;;;;;;;1.17;83.33;101365.80;102909;1255;138261;-67
2023/02/11 00:08:28;;;;;;;56.30;27.20;;;;;;;1.16;83.45;101369.05;104442;1255;108041;-67
2023/02/11 00:10:56;;;;;;;52.60;25.50;;;;;;;1.17;83.27;101367.67;104498;1258;96972;-68
2023/02/11 00:13:23;;;;;;;52.50;25.90;;;;;;;1.17;83.32;101359.45;104335;1255;138144;-67
2023/02/11 00:16:13;;;;;;;47.80;24.00;;;;;;;1.17;83.25;101347.14;104495;1256;95886;-67
2023/02/11 00:18:40;;;;;;;44.90;23.20;;;;;;;1.19;83.13;101348.02;104393;1255;141610;-68
2023/02/11 00:21:13;;;;;;;48.50;23.60;;;;;;;1.21;83.10;101348.26;104488;1254;108594;-66
2023/02/11 00:23:40;;;;;;;45.00;21.30;;;;;;;1.24;83.11;101342.65;103944;1258;138733;-66
2023/02/11 00:26:13;;;;;;;50.70;23.30;;;;;;;1.27;82.84;101342.91;102309;1258;1003196;-66
2023/02/11 00:28:41;;;;;;;46.20;21.60;;;;;;;1.31;82.79;101337.52;102294;1258;1003091;-67
2023/02/11 00:31:09;;;;;;;37.70;18.50;;;;;;;1.34;82.65;101325.94;102165;1262;1002793;-66
2023/02/11 00:33:36;;;;;;;38.80;19.10;;;;;;;1.36;82.49;101327.01;103042;1258;107205;-66
2023/02/11 00:36:08;;;;;;;43.20;20.60;;;;;;;1.39;82.36;101323.80;102937;1258;138512;-67
2023/02/11 00:38:47;;;;;;;42.90;20.40;;;;;;;1.41;82.37;101323.33;103037;1255;107744;-68
2023/02/11 00:41:15;;;;;;;38.70;18.80;;;;;;;1.42;82.24;101317.37;102089;1259;1003096;-68
2023/02/11 00:43:42;;;;;;;42.40;20.30;;;;;;;1.44;82.07;101303.89;102969;1255;110656;-67
2023/02/11 00:46:09;;;;;;;42.70;20.80;;;;;;;1.45;81.98;101298.44;102994;1260;109026;-67
2023/02/11 00:48:36;;;;;;;39.70;19.90;;;;;;;1.44;81.95;101287.28;102935;1256;138529;-67
2023/02/11 00:51:04;;;;;;;42.90;20.20;;;;;;;1.44;81.90;101271.67;102276;1257;1003030;-67
2023/02/11 00:53:32;;;;;;;43.10;21.40;;;;;;;1.42;81.68;101271.60;102945;1255;138808;-67
2023/02/11 00:56:08;;;;;;;40.90;20.70;;;;;;;1.41;81.78;101258.04;103053;1260;112229;-67
2023/02/11 00:58:36;;;;;;;46.70;20.90;;;;;;;1.40;81.68;101250.48;102980;1255;107275;-66
2023/02/11 01:01:06;;;;;;;43.90;20.40;;;;;;;1.38;81.59;101241.87;102882;1259;138684;-66
2023/02/11 01:03:33;;;;;;;41.90;21.00;;;;;;;1.35;81.54;101237.36;103044;1256;107725;-67
2023/02/11 01:06:00;;;;;;;36.90;20.00;;;;;;;1.34;81.54;101241.30;102952;1260;138441;-67
2023/02/11 01:08:30;;;;;;;46.20;21.60;;;;;;;1.32;81.49;101244.67;103116;1256;111280;-67
2023/02/11 01:11:01;;;;;;;42.10;21.00;;;;;;;1.31;81.52;101235.56;103054;1258;108646;-68
2023/02/11 01:13:29;;;;;;;40.60;21.60;;;;;;;1.31;81.45;101223.75;103092;1255;98013;-68
2023/02/11 01:15:56;;;;;;;47.10;22.40;;;;;;;1.32;81.57;101224.80;103074;1256;107133;-67
2023/02/11 01:18:24;;;;;;;42.40;22.40;;;;;;;1.32;81.43;101213.15;102940;1258;138852;-67
2023/02/11 01:20:52;;;;;;;41.40;22.00;;;;;;;1.33;81.49;101205.98;103014;1255;110844;-67
2023/02/11 01:23:19;;;;;;;41.60;20.30;;;;;;;1.34;81.28;101193.16;102925;1260;138637;-67
2023/02/11 01:25:49;;;;;;;42.90;20.10;;;;;;;1.35;81.28;101184.08;103075;1260;99065;-67
2023/02/11 01:28:19;;;;;;;40.20;20.90;;;;;;;1.35;81.25;101174.31;103016;1258;107452;-67
2023/02/11 01:30:47;;;;;;;38.80;20.00;;;;;;;1.36;81.25;101170.04;102945;1255;138645;-67
2023/02/11 01:33:14;;;;;;;41.10;20.80;;;;;;;1.35;81.07;101159.75;102323;1255;1002709;-67
2023/02/11 01:35:53;;;;;;;39.60;20.90;;;;;;;1.34;80.97;101152.53;102914;1259;139124;-67
2023/02/11 01:38:25;;;;;;;40.60;19.40;;;;;;;1.34;81.15;101155.62;103037;1259;98320;-67
2023/02/11 01:40:57;;;;;;;37.00;19.80;;;;;;;1.35;81.11;101155.98;102284;1255;1002513;-68
2023/02/11 01:43:25;;;;;;;37.50;18.90;;;;;;;1.37;81.16;101161.14;102999;1255;97821;-67
2023/02/11 01:46:00;;;;;;;37.40;19.10;;;;;;;1.38;80.90;101171.11;102272;1261;1003680;-67
2023/02/11 01:48:32;;;;;;;40.20;18.30;;;;;;;1.40;80.93;101178.52;102910;1255;138730;-68
2023/02/11 01:51:04;;;;;;;38.80;19.20;;;;;;;1.41;80.97;101182.13;103937;1255;96844;-67
2023/02/11 01:59:17;;;;;;;38.70;18.10;;;;;;;1.46;80.74;101157.58;102929;1259;138572;-67
2023/02/11 02:01:52;;;;;;;38.90;19.20;;;;;;;1.46;80.73;101144.90;103031;1261;107331;-66
2023/02/11 02:04:25;;;;;;;35.60;18.90;;;;;;;1.45;80.58;101141.10;103058;1258;98373;-66
2023/02/11 02:06:59;;;;;;;39.20;19.50;;;;;;;1.44;80.64;101136.47;102261;1258;1002860;-67
2023/02/11 02:09:31;;;;;;;41.30;19.60;;;;;;;1.45;80.69;101126.89;103036;1259;97791;-67
2023/02/11 02:11:58;;;;;;;46.90;20.30;;;;;;;1.45;80.48;101116.08;102914;1259;138316;-67
2023/02/11 02:14:26;;;;;;;39.10;19.40;;;;;;;1.44;80.40;101101.50;102227;1255;1002483;-66
2023/02/11 02:16:53;;;;;;;41.00;19.80;;;;;;;1.43;80.51;101089.13;103042;1255;97768;-68
2023/02/11 02:19:54;;;;;;;43.10;20.40;;;;;;;1.43;80.36;101088.09;102917;1255;138153;-67
2023/02/11 02:22:44;;;;;;;39.70;18.70;;;;;;;1.41;80.45;101079.32;103035;1255;97812;-67
2023/02/11 02:25:28;;;;;;;40.30;19.80;;;;;;;1.40;80.42;101067.13;102154;1257;1003189;-68
2023/02/11 02:28:01;;;;;;;37.50;19.90;;;;;;;1.38;80.44;101078.41;102980;1269;108677;-67
2023/02/11 02:30:50;;;;;;;39.10;20.20;;;;;;;1.36;80.38;101075.30;102948;1261;138502;-67
2023/02/11 02:33:29;;;;;;;38.80;20.00;;;;;;;1.34;80.48;101082.11;104499;1255;108117;-67
2023/02/11 02:36:04;;;;;;;40.40;19.50;;;;;;;1.33;80.49;101074.22;104354;1256;138455;-68
2023/02/11 02:38:38;;;;;;;41.90;19.00;;;;;;;1.32;80.48;101069.05;103556;1257;111284;-67
2023/02/11 02:41:10;;;;;;;41.60;19.90;;;;;;;1.32;80.44;101066.66;102154;1260;1002864;-68
2023/02/11 02:43:45;;;;;;;38.00;18.40;;;;;;;1.31;80.42;101044.88;103063;1255;98422;-66
2023/02/11 02:46:16;;;;;;;36.60;18.80;;;;;;;1.31;80.40;101048.48;104026;1256;108648;-66
2023/02/11 02:48:43;;;;;;;38.40;19.10;;;;;;;1.31;80.40;101045.05;103362;1256;138705;-66
2023/02/11 02:51:25;;;;;;;37.30;18.50;;;;;;;1.31;80.49;101054.13;103272;1255;111796;-66
2023/02/11 02:54:08;;;;;;;36.80;18.20;;;;;;;1.32;80.43;101055.35;101416;1260;1002926;-67
2023/02/11 02:56:46;;;;;;;33.90;18.00;;;;;;;1.32;80.38;101052.09;103069;1258;97663;-68
2023/02/11 02:59:33;;;;;;;33.30;17.00;;;;;;;1.32;80.41;101048.66;102886;1256;138613;-68
2023/02/11 03:02:10;;;;;;;36.90;17.70;;;;;;;1.32;80.35;101038.05;102985;1260;97815;-67
2023/02/11 03:04:48;;;;;;;32.60;17.30;;;;;;;1.34;80.42;101040.98;102982;1260;111506;-67
2023/02/11 03:07:23;;;;;;;39.80;19.10;;;;;;;1.35;80.43;101036.71;102102;1255;1003393;-67
2023/02/11 03:09:54;;;;;;;32.70;16.90;;;;;;;1.37;80.36;101031.27;103024;1255;97677;-67
2023/02/11 03:12:24;;;;;;;34.80;17.80;;;;;;;1.38;80.22;101030.60;102864;1258;138336;-67
2023/02/11 03:14:54;;;;;;;34.20;16.50;;;;;;;1.38;80.12;101029.58;104470;1255;95955;-68
2023/02/11 03:17:23;;;;;;;35.60;17.10;;;;;;;1.38;80.02;101023.41;104380;1255;138673;-67
2023/02/11 03:19:51;;;;;;;33.50;16.40;;;;;;;1.40;79.99;101019.50;103485;1255;108428;-67
2023/02/11 03:22:25;;;;;;;34.00;17.00;;;;;;;1.41;79.88;101002.38;103007;1255;99215;-67
2023/02/11 03:24:53;;;;;;;35.20;17.10;;;;;;;1.42;79.78;101003.94;102132;1255;1002950;-67
2023/02/11 03:27:27;;;;;;;35.80;15.90;;;;;;;1.43;79.74;100999.31;102275;1259;1002577;-66
2023/02/11 03:30:00;;;;;;;39.40;16.20;;;;;;;1.43;79.68;100991.45;102245;1255;1003382;-67
2023/02/11 03:32:33;;;;;;;;;;;;;;;1.44;79.47;100997.80;102271;1256;1002639;-67
2023/02/11 03:35:04;;;;;;;36.60;16.80;;;;;;;1.43;79.42;100989.89;103105;1258;97865;-67
2023/02/11 03:37:36;;;;;;;35.80;17.10;;;;;;;1.43;79.37;100980.64;102999;1256;108369;-67
2023/02/11 03:40:06;;;;;;;42.30;16.80;;;;;;;1.43;79.22;100973.80;103011;1260;97803;-67
2023/02/11 03:42:42;;;;;;;36.00;16.80;;;;;;;1.44;79.18;100968.52;102220;1255;1003672;-67
2023/02/11 03:45:15;;;;;;;34.30;16.80;;;;;;;1.43;79.16;100973.79;102993;1260;108831;-67
2023/02/11 03:47:46;;;;;;;34.50;16.60;;;;;;;1.42;79.00;100966.77;102974;1259;138640;-67
2023/02/11 03:50:16;;;;;;;37.20;17.00;;;;;;;1.43;78.95;100967.97;103019;1258;108179;-67
2023/02/11 03:52:44;;;;;;;35.50;17.50;;;;;;;1.42;78.83;100965.39;103080;1261;99052;-67
2023/02/11 03:55:13;;;;;;;36.70;18.10;;;;;;;1.43;78.94;100969.35;103485;1258;139140;-67
2023/02/11 03:57:40;;;;;;;37.40;19.10;;;;;;;1.42;78.88;100965.89;102997;1255;107636;-67
2023/02/11 04:00:10;;;;;;;31.90;19.10;;;;;;;1.42;78.78;100961.27;102970;1259;138560;-68
2023/02/11 04:02:40;;;;;;;35.30;18.40;;;;;;;1.42;78.59;100949.27;103065;1260;107644;-66
2023/02/11 04:05:10;;;;;;;39.30;19.20;;;;;;;1.42;78.56;100937.97;102922;1261;138647;-67
2023/02/11 04:07:37;;;;;;;36.60;18.60;;;;;;;1.42;78.44;100929.73;103017;1265;110699;-66
2023/02/11 04:10:08;;;;;;;34.70;19.10;;;;;;;1.40;78.33;100920.63;102291;1256;1003085;-66
2023/02/11 04:12:35;;;;;;;42.60;19.10;;;;;;;1.38;78.32;100908.79;102933;1255;138771;-67
2023/02/11 04:15:02;;;;;;;39.80;19.80;;;;;;;1.37;78.31;100903.11;103029;1260;108100;-67
2023/02/11 04:17:30;;;;;;;37.90;19.60;;;;;;;1.36;78.34;100899.15;102889;1261;138822;-67
2023/02/11 04:19:57;;;;;;;37.00;20.10;;;;;;;1.34;78.22;100896.21;103095;1256;112928;-68
2023/02/11 04:22:26;;;;;;;38.30;20.90;;;;;;;1.33;78.14;100893.97;103017;1256;107163;-68
2023/02/11 04:24:56;;;;;;;39.40;21.10;;;;;;;1.31;78.08;100894.27;102230;1260;1002835;-68
2023/02/11 04:27:23;;;;;;;42.10;21.10;;;;;;;1.29;77.91;100899.23;102265;1258;1003092;-67
2023/02/11 04:29:50;;;;;;;39.00;21.60;;;;;;;1.29;78.00;100900.24;102923;1259;138753;-67
2023/02/11 04:32:18;;;;;;;41.40;21.20;;;;;;;1.27;77.91;100889.78;103033;1256;112064;-66
2023/02/11 04:34:46;;;;;;;41.70;21.40;;;;;;;1.26;77.96;100883.58;103037;1260;107716;-67
2023/02/11 04:37:13;;;;;;;39.80;21.00;;;;;;;1.25;77.78;100878.77;102963;1260;138658;-67
2023/02/11 04:39:52;;;;;;;40.10;21.90;;;;;;;1.24;77.85;100868.98;103024;1261;107032;-67
2023/02/11 04:42:19;;;;;;;44.30;21.60;;;;;;;1.24;77.84;100864.17;102972;1260;138635;-68
2023/02/11 04:44:46;;;;;;;47.30;22.60;;;;;;;1.22;77.78;100852.50;103079;1260;111361;-66
2023/02/11 04:47:14;;;;;;;45.90;23.30;;;;;;;1.20;77.78;100839.29;102980;1259;139276;-67
2023/02/11 04:49:41;;;;;;;45.20;23.50;;;;;;;1.19;77.64;100833.11;103098;1260;98323;-67
2023/02/11 04:52:09;;;;;;;43.10;22.60;;;;;;;1.19;77.62;100818.55;103024;1260;107689;-67
2023/02/11 04:54:36;;;;;;;44.80;23.50;;;;;;;1.18;77.54;100813.40;102191;1255;1002496;-67
2023/02/11 04:57:03;;;;;;;38.70;22.00;;;;;;;1.17;77.46;100805.85;103098;1257;111152;-67
2023/02/11 04:59:30;;;;;;;45.90;24.50;;;;;;;1.17;77.41;100798.99;102118;1258;1003317;-67
2023/02/11 05:01:57;;;;;;;39.30;22.40;;;;;;;1.15;77.50;100799.31;102317;1260;1003641;-67
2023/02/11 05:04:25;;;;;;;39.20;22.50;;;;;;;1.14;77.50;100801.52;102952;1261;108028;-66
2023/02/11 05:06:52;;;;;;;47.40;23.10;;;;;;;1.15;77.40;100808.56;102987;1260;139292;-67
2023/02/11 05:09:19;;;;;;;42.50;22.40;;;;;;;1.15;77.42;100800.17;103116;1260;110577;-68
2023/02/11 05:11:46;;;;;;;45.40;23.00;;;;;;;1.16;77.28;100798.80;102190;1260;1003348;-67
2023/02/11 05:14:15;;;;;;;42.60;24.10;;;;;;;1.17;77.25;100794.20;103087;1255;97710;-67
2023/02/11 05:16:42;;;;;;;45.30;24.70;;;;;;;1.19;77.21;100797.98;103069;1254;108602;-67
2023/02/11 05:19:12;;;;;;;50.10;24.40;;;;;;;1.20;77.27;100787.73;102952;1260;138661;-67
2023/02/11 05:21:40;;;;;;;43.60;23.20;;;;;;;1.20;77.10;100780.55;103024;1260;112834;-67
2023/02/11 05:24:22;;;;;;;44.80;24.90;;;;;;;1.22;77.08;100772.33;102161;1255;1003378;-67
2023/02/11 05:26:52;;;;;;;41.40;23.40;;;;;;;1.23;77.06;100758.13;102293;1269;1002562;-67
2023/02/11 05:29:19;;;;;;;41.60;23.00;;;;;;;1.24;76.79;100761.06;102987;1256;140567;-67
2023/02/11 05:31:48;;;;;;;44.90;23.90;;;;;;;1.24;76.87;100759.67;102254;1260;1003241;-67
2023/02/11 05:34:15;;;;;;;44.50;24.00;;;;;;;1.24;76.88;100758.48;103087;1260;110026;-67
2023/02/11 05:36:55;;;;;;;42.70;23.00;;;;;;;1.24;76.84;100762.08;102945;1262;138674;-66
2023/02/11 05:39:22;;;;;;;43.50;23.50;;;;;;;1.23;76.77;100776.29;103052;1255;97840;-67
2023/02/11 05:41:49;;;;;;;46.60;23.40;;;;;;;1.23;76.77;100770.98;102977;1261;138639;-67
2023/02/11 05:44:16;;;;;;;42.90;23.40;;;;;;;1.23;76.67;100768.40;103124;1260;97881;-66
2023/02/11 05:46:43;;;;;;;44.70;24.40;;;;;;;1.21;76.71;100772.33;103058;1260;110373;-67
2023/02/11 05:49:10;;;;;;;43.30;23.90;;;;;;;1.22;76.63;100771.98;102924;1259;138641;-67
2023/02/11 05:51:40;;;;;;;47.70;23.50;;;;;;;1.21;76.60;100760.52;103043;1261;97791;-67
2023/02/11 05:54:11;;;;;;;43.90;23.10;;;;;;;1.23;76.71;100757.95;102964;1259;138529;-66
2023/02/11 05:56:39;;;;;;;46.90;23.60;;;;;;;1.23;76.61;100760.70;103036;1258;97776;-66
2023/02/11 05:59:07;;;;;;;43.90;23.70;;;;;;;1.25;76.76;100750.45;102969;1261;139847;-67
2023/02/11 06:01:34;;;;;;;42.40;23.80;;;;;;;1.25;76.52;100739.99;102947;1259;1002883;-67
2023/02/11 06:04:04;;;;;;;42.00;23.30;;;;;;;1.26;76.55;100734.20;103291;1258;97796;-66
2023/02/11 06:06:31;;;;;;;44.60;24.30;;;;;;;1.26;76.52;100738.48;103026;1260;138517;-67
2023/02/11 06:08:58;;;;;;;44.80;24.00;;;;;;;1.27;76.49;100737.14;103157;1257;97833;-67
2023/02/11 06:11:26;;;;;;;44.70;23.60;;;;;;;1.28;76.52;100732.87;103039;1259;138689;-67
2023/02/11 06:13:53;;;;;;;48.00;25.50;;;;;;;1.28;76.51;100730.48;103151;1260;108426;-67
2023/02/11 06:16:20;;;;;;;44.90;24.80;;;;;;;1.28;76.38;100728.59;102313;1258;1003304;-67
2023/02/11 06:18:47;;;;;;;48.50;24.90;;;;;;;1.28;76.56;100721.21;102171;1260;1002944;-67
2023/02/11 06:21:15;;;;;;;46.00;24.10;;;;;;;1.30;76.52;100716.96;102308;1260;1003630;-66
2023/02/11 06:23:42;;;;;;;44.90;24.80;;;;;;;1.31;76.45;100718.00;103038;1256;139605;-66
2023/02/11 06:26:17;;;;;;;47.80;24.00;;;;;;;1.33;76.52;100716.64;103130;1262;107481;-66
2023/02/11 06:28:45;;;;;;;44.70;24.00;;;;;;;1.33;76.34;100709.63;103173;1260;97686;-67
2023/02/11 06:31:12;;;;;;;42.50;23.80;;;;;;;1.34;76.45;100714.42;103834;1260;139034;-67
2023/02/11 06:33:40;;;;;;;48.90;24.60;;;;;;;1.35;76.45;100717.19;103170;1259;97869;-67
2023/02/11 06:36:17;;;;;;;44.80;25.10;;;;;;;1.35;76.29;100711.36;103050;1256;138768;-67
2023/02/11 06:38:45;;;;;;;46.40;24.70;;;;;;;1.36;76.30;100701.44;103924;1260;107605;-67
2023/02/11 06:41:20;;;;;;;47.50;25.50;;;;;;;1.37;76.39;100705.21;102989;1261;139324;-66
2023/02/11 06:43:47;;;;;;;51.30;25.70;;;;;;;1.39;76.39;100698.38;103575;1260;108786;-67
2023/02/11 06:46:34;;;;;;;45.10;25.70;;;;;;;1.42;76.22;100686.92;103044;1257;97906;-66
2023/02/11 06:49:02;;;;;;;52.30;27.40;;;;;;;1.44;76.39;100686.64;102918;1260;138515;-66
2023/02/11 06:51:29;;;;;;;45.80;25.10;;;;;;;1.46;76.34;100688.56;103038;1260;106660;-67
2023/02/11 06:53:56;;;;;;;47.80;25.30;;;;;;;1.49;76.31;100686.70;102170;1260;1003851;-67
2023/02/11 06:56:26;;;;;;;49.80;26.10;;;;;;;1.51;76.25;100686.88;103026;1269;107300;-66
2023/02/11 06:58:55;;;;;;;47.40;26.60;;;;;;;1.53;76.31;100679.88;103016;1255;97852;-67
2023/02/11 07:01:23;;;;;;;50.50;26.70;;;;;;;1.54;76.19;100666.02;102189;1260;1003119;-67
2023/02/11 07:04:10;;;;;;;51.10;26.40;;;;;;;1.56;76.15;100663.98;102979;1257;107950;-66
2023/02/11 07:06:40;;;;;;;47.70;26.70;;;;;;;1.59;76.24;100659.37;102200;1260;1002727;-67
2023/02/11 07:09:08;;;;;;;50.50;27.90;;;;;;;1.60;76.11;100658.34;103009;1254;107202;-67
2023/02/11 07:11:37;;;;;;;51.20;28.80;;;;;;;1.59;76.09;100667.25;102935;1260;138974;-67
2023/02/11 07:14:08;;;;;;;49.00;26.00;;;;;;;1.58;76.36;100670.33;103062;1258;110512;-67
2023/02/11 07:16:35;;;;;;;48.20;26.70;;;;;;;1.57;76.42;100677.01;103066;1259;107072;-67
2023/02/11 07:19:05;;;;;;;52.60;28.30;;;;;;;1.56;76.56;100683.34;102905;1261;138770;-67
2023/02/11 07:21:44;;;;;;;49.90;27.30;;;;;;;1.56;76.66;100678.54;102994;1261;107937;-67
2023/02/11 07:24:13;;;;;;;50.50;27.80;;;;;;;1.58;76.71;100679.41;102921;1260;138649;-67
2023/02/11 07:26:40;;;;;;;51.50;28.50;;;;;;;1.57;76.71;100671.52;103009;1260;110831;-67
2023/02/11 07:29:07;;;;;;;51.60;28.40;;;;;;;1.56;76.74;100669.28;102911;1259;138997;-68
2023/02/11 07:31:34;;;;;;;53.70;29.20;;;;;;;1.55;77.01;100672.35;103050;1260;97811;-67
2023/02/11 07:34:04;;;;;;;53.70;28.80;;;;;;;1.53;77.09;100668.40;103032;1260;107470;-68
2023/02/11 07:36:32;;;;;;;53.30;29.80;;;;;;;1.52;77.22;100671.14;102906;1260;139036;-68
2023/02/11 07:38:59;;;;;;;55.30;30.10;;;;;;;1.50;77.45;100670.09;102997;1257;111536;-66
2023/02/11 07:41:27;;;;;;;55.30;29.90;;;;;;;1.49;77.60;100660.48;102839;1261;138870;-67
2023/02/11 07:43:54;;;;;;;57.50;31.50;;;;;;;1.47;77.89;100655.83;102980;1260;97874;-67
2023/02/11 07:46:23;;;;;;;57.20;31.00;;;;;;;1.45;78.06;100649.98;102261;1258;1002891;-68
2023/02/11 07:48:51;;;;;;;58.00;32.40;;;;;;;1.44;78.33;100659.89;102892;1258;138873;-67
2023/02/11 07:51:22;;;;;;;53.60;31.70;;;;;;;1.42;78.49;100652.33;103067;1256;110786;-68
2023/02/11 07:53:49;;;;;;;59.30;33.20;;;;;;;1.42;78.50;100655.59;102891;1257;138969;-67
2023/02/11 07:56:17;;;;;;;60.40;33.40;;;;;;;1.43;78.58;100655.23;102346;1257;1003133;-66
2023/02/11 07:58:44;;;;;;;62.60;32.50;;;;;;;1.42;78.81;100660.05;103005;1257;107456;-67
2023/02/11 08:01:13;;;;;;;57.90;33.30;;;;;;;1.42;78.84;100655.92;102966;1254;138851;-67
2023/02/11 08:03:44;;;;;;;64.10;32.40;;;;;;;1.42;78.98;100657.64;103005;1258;111289;-67
2023/02/11 08:06:16;;;;;;;62.30;34.70;;;;;;;1.43;79.10;100653.19;102976;1255;138733;-67
2023/02/11 08:08:43;;;;;;;57.90;32.30;;;;;;;1.44;79.06;100653.57;103053;1260;97809;-67
2023/02/11 08:11:13;;;;;;;67.40;34.00;;;;;;;1.46;79.25;100649.99;102962;1260;138596;-68
2023/02/11 08:13:40;;;;;;;61.90;34.70;;;;;;;1.47;79.44;100636.47;103027;1259;97866;-67
2023/02/11 08:16:08;;;;;;;61.50;33.80;;;;;;;1.49;79.51;100641.11;102265;1260;1003294;-66
2023/02/11 08:18:38;;;;;;;60.10;32.40;;;;;;;1.50;79.74;100641.30;102826;1254;139204;-67
2023/02/11 08:21:08;;;;;;;57.20;32.00;;;;;;;1.52;79.93;100642.85;104073;1255;97645;-66
2023/02/11 08:23:35;;;;;;;60.00;33.70;;;;;;;1.53;80.17;100644.06;104324;1257;139305;-68
2023/02/11 08:26:04;;;;;;;69.10;35.50;;;;;;;1.54;80.31;100638.77;103043;1260;97793;-68
2023/02/11 08:28:32;;;;;;;61.00;35.50;;;;;;;1.55;80.60;100624.55;103025;1260;111701;-67
2023/02/11 08:31:04;;;;;;;60.20;34.40;;;;;;;1.55;80.83;100620.27;102876;1258;138633;-67
2023/02/11 08:33:31;;;;;;;64.70;35.60;;;;;;;1.53;81.01;100620.92;103023;1260;97791;-68
2023/02/11 08:35:58;;;;;;;63.40;35.00;;;;;;;1.51;80.94;100619.70;102928;1256;138873;-68
2023/02/11 08:38:26;;;;;;;66.80;34.40;;;;;;;1.49;81.12;100626.38;103033;1257;97689;-67
2023/02/11 08:40:53;;;;;;;62.50;34.80;;;;;;;1.45;81.24;100627.19;103037;1260;111389;-66
2023/02/11 08:43:20;;;;;;;63.30;33.50;;;;;;;1.40;81.23;100617.52;102895;1257;138518;-67
2023/02/11 08:45:47;;;;;;;64.70;34.40;;;;;;;1.39;81.48;100612.55;103031;1258;99105;-68
2023/02/11 08:48:14;;;;;;;64.50;35.20;;;;;;;1.39;81.62;100601.58;102898;1258;138575;-67
2023/02/11 08:50:41;;;;;;;63.50;34.90;;;;;;;1.40;81.89;100594.91;103087;1257;97690;-68
2023/02/11 08:53:09;;;;;;;63.00;34.80;;;;;;;1.42;81.96;100587.73;102950;1257;138643;-68
2023/02/11 08:55:36;;;;;;;63.90;34.80;;;;;;;1.44;82.02;100567.39;102297;1257;1002649;-66
2023/02/11 08:58:03;;;;;;;59.20;33.30;;;;;;;1.45;82.05;100563.63;103078;1258;97792;-69
2023/02/11 09:00:30;;;;;;;61.90;33.90;;;;;;;1.45;82.28;100563.80;102943;1260;139595;-67
2023/02/11 09:02:58;;;;;;;64.80;34.60;;;;;;;1.45;82.46;100559.68;103004;1260;97760;-67
2023/02/11 09:05:28;;;;;;;60.50;34.00;;;;;;;1.48;82.45;100555.94;102975;1254;138953;-67
2023/02/11 09:07:55;;;;;;;58.50;32.90;;;;;;;1.48;82.41;100545.48;102299;1260;1003434;-67
2023/02/11 09:10:22;;;;;;;58.50;33.60;;;;;;;1.50;82.78;100531.11;103128;1257;97776;-67
2023/02/11 09:12:49;;;;;;;59.40;34.30;;;;;;;1.51;82.81;100530.95;102974;1260;138535;-67
2023/02/11 09:15:16;;;;;;;65.00;34.30;;;;;;;1.52;82.79;100530.78;103091;1260;97918;-67
2023/02/11 09:17:43;;;;;;;58.30;33.80;;;;;;;1.51;82.86;100533.35;102968;1260;139239;-68
2023/02/11 09:20:12;;;;;;;65.30;33.70;;;;;;;1.51;82.91;100523.75;101546;1257;1003547;-68
2023/02/11 09:22:39;;;;;;;61.50;33.10;;;;;;;1.52;83.09;100529.40;102261;1256;1003385;-67
2023/02/11 09:25:09;;;;;;;63.10;34.00;;;;;;;1.52;83.15;100534.90;102931;1257;139195;-67
2023/02/11 09:27:38;;;;;;;63.30;33.90;;;;;;;1.52;83.37;100535.06;102246;1257;1003455;-67
2023/02/11 09:30:06;;;;;;;63.00;35.50;;;;;;;1.51;83.41;100542.94;102861;1260;138818;-68
2023/02/11 09:32:34;;;;;;;56.80;32.70;;;;;;;1.52;83.35;100542.78;104296;1257;107800;-67
2023/02/11 09:35:01;;;;;;;62.60;34.70;;;;;;;1.53;83.50;100548.61;102970;1260;97790;-66
2023/02/11 09:37:30;;;;;;;71.00;34.10;;;;;;;1.51;83.58;100548.42;102195;1257;1003082;-67
2023/02/11 09:40:00;;;;;;;57.80;32.60;;;;;;;1.53;83.61;100554.27;102979;1260;97887;-67
2023/02/11 09:42:54;;;;;;;62.80;33.30;;;;;;;1.53;83.67;100560.09;102867;1257;138422;-67
2023/02/11 09:45:29;;;;;;;59.60;34.30;;;;;;;1.54;83.68;100578.61;102932;1260;106644;-66
2023/02/11 09:48:00;;;;;;;59.50;33.00;;;;;;;1.56;83.71;100585.48;103828;1255;138613;-67
2023/02/11 09:50:34;;;;;;;62.50;33.80;;;;;;;1.56;83.90;100585.31;103060;1257;106959;-66
2023/02/11 09:53:04;;;;;;;62.90;34.50;;;;;;;1.56;84.13;100584.80;103285;1260;97863;-67
2023/02/11 09:55:36;;;;;;;64.60;35.70;;;;;;;1.55;84.26;100577.93;103044;1257;111511;-67
2023/02/11 09:58:07;;;;;;;64.40;34.80;;;;;;;1.54;84.30;100565.06;103110;1258;107609;-67
2023/02/11 10:00:39;;;;;;;62.60;35.10;;;;;;;1.54;84.62;100551.88;102958;1254;137557;-67
2023/02/11 10:03:35;;;;;;;66.60;34.80;;;;;;;1.54;84.81;100535.09;103138;1256;108756;-67
2023/02/11 10:06:25;;;;;;;66.70;36.00;;;;;;;1.54;85.09;100530.97;102988;1255;138641;-67
2023/02/11 10:09:05;;;;;;;65.90;34.90;;;;;;;1.54;85.23;100536.11;103068;1256;111610;-67
2023/02/11 10:11:45;;;;;;;65.60;36.10;;;;;;;1.53;85.21;100545.35;102692;1260;1003118;-67
2023/02/11 10:14:26;;;;;;;65.70;36.10;;;;;;;1.54;85.39;100547.59;103110;1254;97726;-67
2023/02/11 10:17:06;;;;;;;64.00;37.00;;;;;;;1.55;85.48;100546.23;102336;1258;1003462;-67
2023/02/11 10:19:46;;;;;;;62.40;34.40;;;;;;;1.58;85.72;100539.23;103003;1259;97809;-67
2023/02/11 10:22:19;;;;;;;65.40;35.70;;;;;;;1.59;85.78;100533.23;102327;1259;1003163;-67
2023/02/11 10:24:53;;;;;;;65.20;37.10;;;;;;;1.59;85.94;100520.38;102930;1258;139398;-67
2023/02/11 10:27:34;;;;;;;65.00;35.30;;;;;;;1.59;85.97;100514.55;102277;1255;1016305;-67
2023/02/11 10:30:06;;;;;;;69.60;35.80;;;;;;;1.59;86.14;100501.02;102825;1255;139004;-67
2023/02/11 10:32:44;;;;;;;70.20;36.50;;;;;;;1.61;86.14;100489.37;102925;1256;97806;-67
2023/02/11 10:35:16;;;;;;;71.10;36.50;;;;;;;1.62;86.33;100485.13;102831;1256;138644;-68
2023/02/11 10:37:43;;;;;;;68.90;35.80;;;;;;;1.63;86.54;100470.55;102893;1256;107698;-67
2023/02/11 10:40:16;;;;;;;63.90;35.20;;;;;;;1.63;86.65;100466.11;103008;1258;98371;-68
2023/02/11 10:42:47;;;;;;;69.00;37.40;;;;;;;1.62;86.67;100471.92;104324;1254;139000;-68
2023/02/11 10:45:22;;;;;;;66.80;36.00;;;;;;;1.63;86.75;100462.51;104489;1255;96013;-67
2023/02/11 10:47:49;;;;;;;65.00;35.30;;;;;;;1.63;86.99;100467.14;104371;1255;138681;-68
2023/02/11 10:50:25;;;;;;;63.90;36.40;;;;;;;1.64;87.12;100458.91;103263;1255;105668;-67
2023/02/11 10:52:55;;;;;;;71.50;38.50;;;;;;;1.64;87.04;100450.86;103009;1259;97821;-67
2023/02/11 10:55:27;;;;;;;66.60;36.50;;;;;;;1.66;87.11;100445.38;103703;1255;139252;-68
2023/02/11 10:58:00;;;;;;;70.10;36.90;;;;;;;1.67;87.22;100438.70;103051;1256;97811;-68
2023/02/11 11:00:50;;;;;;;71.30;38.00;;;;;;;1.67;87.15;100454.47;102923;1256;138460;-68
2023/02/11 11:03:20;;;;;;;72.60;37.30;;;;;;;1.68;87.35;100451.73;101521;1258;1003112;-68
2023/02/11 11:06:09;;;;;;;72.60;38.60;;;;;;;1.69;87.64;100449.85;103269;1257;138876;-67
2023/02/11 11:08:45;;;;;;;71.50;37.90;;;;;;;1.70;87.52;100437.86;102924;1260;107778;-67
2023/02/11 11:11:15;;;;;;;78.00;39.50;;;;;;;1.72;87.52;100429.98;102928;1255;139443;-68
2023/02/11 11:13:55;;;;;;;78.50;38.80;;;;;;;1.73;87.53;100434.62;102301;1258;1003079;-66
2023/02/11 11:16:27;;;;;;;74.00;39.40;;;;;;;1.74;87.59;100443.02;102887;1257;108185;-66
2023/02/11 11:19:15;;;;;;;76.10;39.50;;;;;;;1.74;87.76;100461.19;102891;1254;138705;-67
2023/02/11 11:21:46;;;;;;;73.80;40.20;;;;;;;1.73;87.91;100472.34;102992;1261;107542;-68
2023/02/11 11:24:20;;;;;;;77.20;40.70;;;;;;;1.72;88.18;100473.19;102111;1259;1002955;-68